Jersey City, NJ (07305)

3:53 AM EST on February 27, 2015 (GMT -0500)
Tile-Experts.com (Broadway/38th Street) | Change Station
CLOSE
Current Station
Personal Weather Station
Location: Bayonne, NJ
Elevation: 39 ft
Nearby Weather Stations

Elev 39 ft 40.68 °N, 74.11 °W | Updated 13 seconds ago

Partly Cloudy
Partly Cloudy
20.8 °F
Feels Like 16 °F
N
3.6
Wind Variable Wind from North
Gusts 4.9 mph

Today
High -- | Low -- °F
--% Chance of Precip.
Yesterday
High -- | Low -- °F
Precip. -- in
6:33 AM 5:45 PM
Waxing Gibbous, 67% visible
Pressure 30.22 in
Visibility 10.0 miles
Clouds Mostly Cloudy 18000 ft
Windchill 16 °F
Dew Point 6 °F
Humidity 52%
Rainfall 0.00 in
Snow Depth Not available.
UV 0.0 out of 12
Pollen .50 out of 12
Air Quality Not available.
Flu Activity Not available.
METAR KEWR 270751Z 04003KT 10SM BKN180 M07/M12 A3022 RMK AO2 SLP233 T10671122

More Conditions Fewer Conditions

Pressure 30.22 in
Visibility 10.0 miles
Clouds Mostly Cloudy 18000 ft
Windchill 16 °F
Dew Point 6 °F
Humidity 52%
Rainfall 0.00 in
Snow Depth Not available.
UV 0.0 out of 12
Pollen .50 out of 12
Air Quality Not available.
Flu Activity Not available.
METAR KEWR 270751Z 04003KT 10SM BKN180 M07/M12 A3022 RMK AO2 SLP233 T10671122

More Conditions Fewer Conditions

10-Day Weather Forecast

Almanac

Astronomy

Feb. 27, 2015 Rise Set
Actual Time
Civil Twilight
Nautical Twilight
Astronomical Twilight
Moon
Length of Visible Light
Length of Day
Tomorrow will be .
, % of the Moon is Illuminated

Today's Extremes

State Highs State Lows

Community

WunderPhotos

Upload Photos

1,800,649 photos uploaded!

WunderBlogs® & News

Nearby

Air Quality

  Air Quality AQ Index Pollutant
Not available.

Snow Depth

Station Depth Elevation

Earthquake Activity

City Distance Mag. Time & Date
Minimum magnitude displayed is 2.5.

Coastal Water Temperatures

Place Temperature

Nearby Weather Stations